Time;durP1;ratioP1;P1;durP2;ratioP2;P2;SDS_P1;SDS_P2;PMS_P1;PMS_P2;Temp;Humidity;BMP_temperature;BMP_pressure;BME280_temperature;BME280_humidity;BME280_pressure;Samples;Min_cycle;Max_cycle;Signal;HPM_P1;HPM_P2
2023/06/18 00:00:39;;;;;;;20.55;16.85;;;16.40;99.90;;;;;;5011580;28;20029;-35
2023/06/18 00:03:05;;;;;;;20.73;17.40;;;16.30;99.90;;;;;;5022597;28;20046;-35
2023/06/18 00:05:31;;;;;;;19.58;16.95;;;16.30;99.90;;;;;;5012607;28;20048;-35
2023/06/18 00:07:57;;;;;;;20.10;16.58;;;16.30;99.90;;;;;;5014970;28;20414;-34
2023/06/18 00:10:22;;;;;;;21.90;18.08;;;16.20;99.90;;;;;;5002757;28;20064;-37
2023/06/18 00:12:48;;;;;;;19.73;16.50;;;16.20;99.90;;;;;;5010103;28;20226;-34
2023/06/18 00:15:14;;;;;;;21.33;18.48;;;16.20;99.90;;;;;;5011657;28;20030;-37
2023/06/18 00:17:40;;;;;;;23.02;18.40;;;16.20;99.90;;;;;;5009389;28;20038;-35
2023/06/18 00:20:06;;;;;;;21.02;17.35;;;16.10;99.90;;;;;;4985278;28;20081;-36
2023/06/18 00:22:38;;;;;;;20.58;18.35;;;16.10;99.90;;;;;;5007988;28;20395;-35
2023/06/18 00:25:07;;;;;;;20.55;18.35;;;16.10;99.90;;;;;;5009173;28;20033;-36
2023/06/18 00:27:33;;;;;;;20.27;18.13;;;16.10;99.90;;;;;;5007785;28;20045;-36
2023/06/18 00:29:59;;;;;;;21.77;17.92;;;16.00;99.90;;;;;;5012693;28;20038;-34
2023/06/18 00:32:25;;;;;;;24.52;18.48;;;16.00;99.90;;;;;;5008214;28;20042;-36
2023/06/18 00:34:54;;;;;;;22.25;18.48;;;16.00;99.90;;;;;;5015543;28;20036;-35
2023/06/18 00:37:20;;;;;;;24.35;18.95;;;16.00;99.90;;;;;;5010792;28;20045;-39
2023/06/18 00:39:46;;;;;;;24.10;20.38;;;16.00;99.90;;;;;;5007091;28;20073;-36
2023/06/18 00:42:13;;;;;;;21.38;18.95;;;16.00;99.90;;;;;;5003272;28;20045;-38
2023/06/18 00:44:42;;;;;;;23.83;19.58;;;16.00;99.90;;;;;;5005801;28;20065;-35
2023/06/18 00:47:11;;;;;;;24.50;19.55;;;16.00;99.90;;;;;;5001977;28;20034;-35
2023/06/18 00:49:37;;;;;;;25.63;21.25;;;15.90;99.90;;;;;;5008060;28;20502;-37
2023/06/18 00:52:05;;;;;;;23.67;20.80;;;15.90;99.90;;;;;;4991774;28;20048;-36
2023/06/18 00:54:34;;;;;;;26.52;21.85;;;15.90;99.90;;;;;;5008209;28;20116;-34
2023/06/18 00:57:00;;;;;;;26.27;22.10;;;15.90;99.90;;;;;;5008385;28;20061;-35
2023/06/18 00:59:27;;;;;;;25.38;20.50;;;15.80;99.90;;;;;;5014301;28;20116;-35
2023/06/18 01:01:55;;;;;;;26.67;20.58;;;15.80;99.90;;;;;;5008175;28;20084;-37
2023/06/18 01:04:23;;;;;;;29.83;22.70;;;15.80;99.90;;;;;;5008161;28;20425;-37
2023/06/18 01:06:51;;;;;;;25.70;21.30;;;15.80;99.90;;;;;;5009936;28;20034;-35
2023/06/18 01:09:21;;;;;;;27.27;21.35;;;15.70;99.90;;;;;;4988371;28;20388;-35
2023/06/18 01:11:53;;;;;;;27.40;22.45;;;15.70;99.90;;;;;;5007061;28;20050;-38
2023/06/18 01:14:21;;;;;;;25.38;20.42;;;15.70;99.90;;;;;;5006514;28;20029;-37
2023/06/18 01:16:49;;;;;;;28.77;21.23;;;15.70;99.90;;;;;;5005835;28;20552;-38
2023/06/18 01:19:40;;;;;;;26.27;21.40;;;15.60;99.90;;;;;;5009538;28;20491;-37
2023/06/18 01:22:44;;;;;;;26.25;20.98;;;15.60;99.90;;;;;;4996693;28;20488;-35
2023/06/18 01:25:10;;;;;;;28.23;21.35;;;15.60;99.90;;;;;;5002138;28;20053;-35
2023/06/18 01:27:41;;;;;;;25.92;21.27;;;15.60;99.90;;;;;;4990046;28;20460;-36
2023/06/18 01:30:08;;;;;;;29.38;23.02;;;15.50;99.90;;;;;;5007806;28;20249;-34
2023/06/18 01:32:36;;;;;;;25.83;21.05;;;15.50;99.90;;;;;;4988635;28;20107;-37
2023/06/18 01:35:03;;;;;;;29.08;23.85;;;15.50;99.90;;;;;;5009480;28;20081;-35
2023/06/18 01:37:48;;;;;;;28.33;22.38;;;15.50;99.90;;;;;;5006818;28;20049;-34
2023/06/18 01:40:38;;;;;;;27.20;22.08;;;15.50;99.90;;;;;;4999462;28;20107;-35
2023/06/18 01:43:24;;;;;;;28.08;22.52;;;15.50;99.90;;;;;;5003622;28;20140;-38
2023/06/18 01:46:03;;;;;;;29.45;22.60;;;15.50;99.90;;;;;;5006143;28;20053;-39
2023/06/18 01:48:39;;;;;;;29.25;21.95;;;15.40;99.90;;;;;;5009493;28;20034;-36
2023/06/18 01:51:06;;;;;;;25.05;19.77;;;15.40;99.90;;;;;;5004921;28;20053;-36
2023/06/18 01:53:37;;;;;;;28.75;22.88;;;15.40;99.90;;;;;;5007790;28;20124;-38
2023/06/18 01:56:03;;;;;;;31.13;23.67;;;15.30;99.90;;;;;;5005146;28;20098;-34
2023/06/18 01:58:33;;;;;;;27.83;22.35;;;15.30;99.90;;;;;;4989447;28;20056;-35
2023/06/18 02:00:59;;;;;;;26.08;20.70;;;15.30;99.90;;;;;;5004800;28;20049;-36
2023/06/18 02:03:25;;;;;;;27.35;22.33;;;15.20;99.90;;;;;;4987647;28;20044;-37
2023/06/18 02:05:51;;;;;;;29.48;21.85;;;15.30;99.90;;;;;;4982247;28;20037;-35
2023/06/18 02:08:17;;;;;;;27.88;21.25;;;15.30;99.90;;;;;;4989098;28;20045;-38
2023/06/18 02:10:43;;;;;;;27.80;22.30;;;15.20;99.90;;;;;;5005382;28;20253;-35
2023/06/18 02:13:10;;;;;;;27.38;20.85;;;15.20;99.90;;;;;;5005938;28;20038;-35
2023/06/18 02:15:36;;;;;;;25.20;20.63;;;15.10;99.90;;;;;;5005579;28;20068;-35
2023/06/18 02:18:01;;;;;;;30.25;22.88;;;15.20;99.90;;;;;;5009819;28;20060;-35
2023/06/18 02:20:27;;;;;;;29.02;21.45;;;15.10;99.90;;;;;;5004516;28;20480;-34
2023/06/18 02:22:53;;;;;;;30.45;23.38;;;15.10;99.90;;;;;;5003805;28;20034;-35
2023/06/18 02:25:19;;;;;;;29.10;23.13;;;15.10;99.90;;;;;;5009020;28;20048;-36
2023/06/18 02:27:56;;;;;;;25.42;21.52;;;15.00;99.90;;;;;;4979960;28;20129;-35
2023/06/18 02:30:22;;;;;;;28.48;21.10;;;15.10;99.90;;;;;;5009673;28;20040;-36
2023/06/18 02:32:48;;;;;;;29.98;22.70;;;15.00;99.90;;;;;;5008290;28;20422;-34
2023/06/18 02:35:15;;;;;;;32.40;23.58;;;15.00;99.90;;;;;;5010057;28;20077;-35
2023/06/18 02:37:42;;;;;;;28.83;22.02;;;15.00;99.90;;;;;;5011064;28;20145;-37
2023/06/18 02:40:09;;;;;;;29.17;23.15;;;14.90;99.90;;;;;;5009298;28;20065;-34
2023/06/18 02:42:35;;;;;;;29.52;22.42;;;14.90;99.90;;;;;;5008426;28;20045;-39
2023/06/18 02:45:03;;;;;;;28.20;22.00;;;14.90;99.90;;;;;;5004343;28;20060;-34
2023/06/18 02:47:28;;;;;;;28.25;22.15;;;14.90;99.90;;;;;;5009638;28;20049;-36
2023/06/18 02:49:54;;;;;;;29.63;23.17;;;14.80;99.90;;;;;;5009456;28;20114;-36
2023/06/18 02:52:20;;;;;;;31.25;24.33;;;14.80;99.90;;;;;;5009953;28;20514;-38
2023/06/18 02:54:46;;;;;;;26.25;21.58;;;14.80;99.90;;;;;;5010377;28;20038;-36
2023/06/18 02:57:11;;;;;;;29.15;22.83;;;14.80;99.90;;;;;;5010646;28;20049;-37
2023/06/18 02:59:37;;;;;;;30.15;21.98;;;14.80;99.90;;;;;;5010150;28;20034;-38
2023/06/18 03:02:04;;;;;;;26.40;21.10;;;14.80;99.90;;;;;;4991450;28;20047;-36
2023/06/18 03:04:30;;;;;;;25.30;21.17;;;14.80;99.90;;;;;;5009153;28;20095;-39
2023/06/18 03:06:59;;;;;;;25.75;20.70;;;14.70;99.90;;;;;;5004232;28;20531;-37
2023/06/18 03:09:25;;;;;;;27.55;22.13;;;14.70;99.90;;;;;;5007772;28;20037;-36
2023/06/18 03:11:50;;;;;;;28.85;22.45;;;14.70;99.90;;;;;;5006285;28;20178;-34
2023/06/18 03:14:16;;;;;;;29.65;22.38;;;14.70;99.90;;;;;;5008567;28;20406;-34
2023/06/18 03:16:42;;;;;;;30.08;23.30;;;14.70;99.90;;;;;;5010128;28;20041;-34
2023/06/18 03:19:07;;;;;;;27.25;20.73;;;14.70;99.90;;;;;;5010827;28;20124;-33
2023/06/18 03:21:33;;;;;;;31.80;23.88;;;14.60;99.90;;;;;;5011820;28;20491;-36
2023/06/18 03:23:59;;;;;;;27.02;21.20;;;14.60;99.90;;;;;;5012945;28;20152;-36
2023/06/18 03:26:24;;;;;;;30.08;22.80;;;14.70;99.90;;;;;;5012785;28;20168;-35
2023/06/18 03:28:50;;;;;;;27.52;22.02;;;14.70;99.90;;;;;;5013051;28;20391;-34
2023/06/18 03:31:16;;;;;;;29.33;21.77;;;14.70;99.90;;;;;;5013088;28;20049;-32
2023/06/18 03:33:42;;;;;;;29.98;22.58;;;14.60;99.90;;;;;;5013050;28;20116;-37
2023/06/18 03:36:08;;;;;;;33.00;24.05;;;14.60;99.90;;;;;;5012460;28;20061;-36
2023/06/18 03:38:33;;;;;;;30.98;23.67;;;14.60;99.90;;;;;;5012239;28;20042;-38
2023/06/18 03:40:59;;;;;;;34.33;25.30;;;14.60;99.90;;;;;;5012670;28;20038;-37
2023/06/18 03:43:25;;;;;;;34.47;27.00;;;14.70;99.90;;;;;;5012559;28;20034;-35
2023/06/18 03:45:50;;;;;;;30.65;23.45;;;14.70;99.90;;;;;;5012840;28;20045;-32
2023/06/18 03:48:16;;;;;;;32.95;23.67;;;14.70;99.90;;;;;;5012821;28;20121;-36
2023/06/18 03:50:42;;;;;;;34.72;24.30;;;14.70;99.90;;;;;;5012722;28;20045;-36
2023/06/18 03:53:08;;;;;;;31.80;23.45;;;14.80;99.90;;;;;;4994831;28;20029;-36
2023/06/18 03:55:34;;;;;;;33.45;23.77;;;14.70;99.90;;;;;;4994950;28;20042;-35
2023/06/18 03:58:00;;;;;;;31.58;23.20;;;14.80;99.90;;;;;;5013131;28;20452;-35
2023/06/18 04:00:26;;;;;;;31.75;23.80;;;14.80;99.90;;;;;;4996008;28;20519;-35
2023/06/18 04:02:52;;;;;;;33.33;24.73;;;14.90;99.90;;;;;;4980481;28;20495;-36
2023/06/18 04:05:17;;;;;;;33.35;23.77;;;14.90;99.90;;;;;;4996363;28;20050;-33
2023/06/18 04:07:43;;;;;;;36.13;26.35;;;14.90;99.90;;;;;;4979842;28;20042;-33
2023/06/18 04:10:09;;;;;;;42.20;26.88;;;15.00;99.90;;;;;;5012239;28;20030;-37
2023/06/18 04:12:35;;;;;;;36.58;25.80;;;15.00;99.90;;;;;;5012117;28;20054;-37
2023/06/18 04:15:00;;;;;;;38.28;27.65;;;15.00;99.90;;;;;;5012020;28;20034;-37
2023/06/18 04:17:26;;;;;;;40.72;26.95;;;15.10;99.90;;;;;;4994375;28;20069;-35
2023/06/18 04:19:52;;;;;;;37.75;28.00;;;15.10;99.90;;;;;;5011995;28;20091;-35
2023/06/18 04:22:18;;;;;;;39.05;26.90;;;15.20;99.90;;;;;;5012012;28;20483;-35
2023/06/18 04:24:43;;;;;;;36.75;27.20;;;15.20;99.90;;;;;;5012208;28;20057;-33
2023/06/18 04:27:09;;;;;;;39.03;27.52;;;15.30;99.90;;;;;;5012131;28;20129;-39
2023/06/18 04:29:35;;;;;;;35.25;26.45;;;15.30;99.90;;;;;;5012033;28;20042;-37
2023/06/18 04:32:01;;;;;;;33.03;24.83;;;15.40;99.90;;;;;;5012391;28;20582;-36
2023/06/18 04:34:27;;;;;;;38.03;26.90;;;15.50;99.90;;;;;;5011984;28;20183;-33
2023/06/18 04:36:52;;;;;;;34.90;27.83;;;15.50;99.90;;;;;;5012245;28;20150;-36
2023/06/18 04:39:18;;;;;;;40.60;28.77;;;15.50;99.90;;;;;;5011915;28;20169;-34
2023/06/18 04:41:44;;;;;;;40.50;28.13;;;15.60;99.90;;;;;;5012160;28;20073;-37
2023/06/18 04:44:12;;;;;;;36.22;26.63;;;15.60;99.90;;;;;;5012217;28;20072;-35
2023/06/18 04:46:39;;;;;;;36.55;27.48;;;15.70;99.90;;;;;;5011393;28;20045;-35
2023/06/18 04:49:05;;;;;;;39.85;28.23;;;15.70;99.90;;;;;;5011301;28;20049;-38
2023/06/18 04:51:31;;;;;;;40.53;27.20;;;15.70;99.90;;;;;;5010246;28;20042;-33
2023/06/18 04:53:56;;;;;;;36.97;27.55;;;15.70;99.90;;;;;;5011625;28;20403;-33
2023/06/18 04:56:22;;;;;;;38.88;27.50;;;15.70;99.90;;;;;;5011557;28;20046;-35
2023/06/18 04:58:48;;;;;;;37.03;27.80;;;15.70;99.90;;;;;;5011572;28;20488;-35
2023/06/18 05:01:14;;;;;;;37.35;27.35;;;15.80;99.90;;;;;;5010913;28;20121;-36
2023/06/18 05:03:39;;;;;;;36.55;26.88;;;15.80;99.90;;;;;;5011259;28;20081;-37
2023/06/18 05:06:05;;;;;;;39.00;28.05;;;15.90;99.90;;;;;;4993785;28;20085;-34
2023/06/18 05:08:31;;;;;;;39.90;28.08;;;15.90;99.90;;;;;;5011077;28;20034;-37
2023/06/18 05:10:57;;;;;;;37.13;27.95;;;16.00;99.90;;;;;;5011155;28;20044;-39
2023/06/18 05:13:23;;;;;;;38.65;28.38;;;16.10;99.90;;;;;;4993266;28;20058;-36
2023/06/18 05:15:48;;;;;;;36.90;26.10;;;16.10;99.90;;;;;;5011217;28;20080;-37
2023/06/18 05:18:14;;;;;;;35.80;27.30;;;16.20;99.90;;;;;;5010959;28;20102;-35
2023/06/18 05:20:39;;;;;;;33.22;25.98;;;16.30;99.90;;;;;;5011046;28;20403;-36
2023/06/18 05:23:05;;;;;;;35.95;27.70;;;16.40;99.90;;;;;;5010993;28;20376;-34
2023/06/18 05:25:33;;;;;;;38.17;28.40;;;16.50;99.90;;;;;;5010542;28;20519;-38
2023/06/18 05:27:58;;;;;;;36.28;27.48;;;16.60;99.90;;;;;;5010895;28;20073;-33
2023/06/18 05:30:24;;;;;;;37.83;27.90;;;16.70;99.90;;;;;;5010740;28;20108;-36
2023/06/18 05:32:50;;;;;;;37.38;28.38;;;16.80;99.90;;;;;;5010251;28;20041;-35
2023/06/18 05:35:16;;;;;;;42.05;28.95;;;16.90;99.90;;;;;;5010390;28;20103;-32
2023/06/18 05:37:41;;;;;;;40.78;29.05;;;17.00;99.90;;;;;;4992819;28;20049;-38
2023/06/18 05:40:08;;;;;;;38.58;29.15;;;17.20;99.90;;;;;;4992664;28;20665;-36
2023/06/18 05:42:33;;;;;;;36.13;26.33;;;17.30;99.90;;;;;;5010628;28;20108;-38
2023/06/18 05:44:59;;;;;;;33.60;26.80;;;17.50;99.90;;;;;;5010623;28;20030;-37
2023/06/18 05:47:25;;;;;;;33.28;25.83;;;17.60;99.90;;;;;;5010035;28;20037;-36
2023/06/18 05:49:50;;;;;;;33.90;26.10;;;17.70;99.90;;;;;;5010579;28;20536;-34
2023/06/18 05:52:16;;;;;;;35.05;26.85;;;17.80;99.90;;;;;;5010203;28;20042;-32
2023/06/18 05:54:42;;;;;;;34.95;26.27;;;18.00;99.90;;;;;;5010175;28;20049;-40
2023/06/18 05:57:11;;;;;;;35.22;27.50;;;18.10;99.90;;;;;;5010432;28;20468;-36
2023/06/18 05:59:36;;;;;;;34.03;25.30;;;18.30;99.90;;;;;;5010079;28;20046;-38
2023/06/18 06:02:03;;;;;;;35.20;27.65;;;18.40;99.90;;;;;;5009188;28;20121;-33
2023/06/18 06:04:28;;;;;;;35.92;27.20;;;18.60;99.90;;;;;;5010046;28;20496;-34
2023/06/18 06:06:54;;;;;;;34.35;27.67;;;18.70;99.90;;;;;;5009899;28;20052;-36
2023/06/18 06:09:20;;;;;;;31.85;25.45;;;18.80;99.90;;;;;;4992480;28;20052;-39
2023/06/18 06:11:45;;;;;;;36.33;26.65;;;19.00;99.90;;;;;;5010341;28;20475;-35
2023/06/18 06:14:11;;;;;;;29.05;24.92;;;19.20;99.90;;;;;;5010004;28;20400;-35
2023/06/18 06:16:37;;;;;;;31.52;25.63;;;19.30;99.90;;;;;;5009839;28;20088;-32
2023/06/18 06:19:03;;;;;;;30.75;25.58;;;19.40;99.90;;;;;;5009974;28;20042;-32
2023/06/18 06:21:30;;;;;;;30.00;23.88;;;19.50;99.90;;;;;;5009399;28;20464;-35
2023/06/18 06:23:56;;;;;;;31.42;25.35;;;19.60;99.90;;;;;;5009759;28;20518;-36
2023/06/18 06:26:22;;;;;;;31.48;24.73;;;19.70;99.90;;;;;;5009832;28;20069;-36
2023/06/18 06:28:47;;;;;;;28.23;23.33;;;19.80;99.90;;;;;;5009708;28;20034;-37
2023/06/18 06:31:13;;;;;;;26.90;23.77;;;19.90;99.90;;;;;;5009537;28;20042;-36
2023/06/18 06:33:39;;;;;;;26.35;22.48;;;19.90;99.90;;;;;;5009327;28;20124;-36
2023/06/18 06:36:04;;;;;;;28.15;22.90;;;20.00;99.90;;;;;;5009511;28;20045;-36
2023/06/18 06:38:30;;;;;;;26.80;22.10;;;20.10;99.90;;;;;;4991992;28;20050;-37
2023/06/18 06:40:56;;;;;;;26.02;22.27;;;20.30;99.90;;;;;;5009469;28;20069;-33
2023/06/18 06:43:21;;;;;;;28.08;23.55;;;20.40;99.90;;;;;;5009275;28;20395;-32
2023/06/18 06:45:47;;;;;;;27.98;23.23;;;20.60;99.90;;;;;;5009084;28;20069;-35
2023/06/18 06:48:13;;;;;;;28.65;24.35;;;20.70;99.90;;;;;;5009412;28;20116;-36
2023/06/18 06:50:38;;;;;;;26.40;23.52;;;20.80;99.90;;;;;;5009361;28;20037;-36
2023/06/18 06:53:04;;;;;;;26.92;23.20;;;20.90;99.90;;;;;;5009321;28;20045;-36
2023/06/18 06:55:30;;;;;;;27.50;22.48;;;21.00;99.90;;;;;;5009522;28;20125;-32
2023/06/18 06:57:56;;;;;;;26.95;22.17;;;21.20;99.90;;;;;;5009524;28;20479;-37
2023/06/18 07:00:22;;;;;;;25.00;21.00;;;21.40;99.90;;;;;;5008821;28;20042;-34
2023/06/18 07:02:48;;;;;;;27.90;22.48;;;21.70;99.90;;;;;;5009334;28;20498;-36
2023/06/18 07:05:14;;;;;;;24.55;21.50;;;21.80;99.90;;;;;;5007883;28;20042;-37
2023/06/18 07:07:40;;;;;;;27.75;20.92;;;22.00;99.90;;;;;;5009377;28;20049;-38
2023/06/18 07:10:06;;;;;;;24.83;20.20;;;22.20;99.90;;;;;;5009235;28;20038;-34
2023/06/18 07:12:31;;;;;;;23.70;19.77;;;22.40;99.90;;;;;;4991677;28;20489;-37
2023/06/18 07:14:57;;;;;;;24.02;20.90;;;22.60;99.90;;;;;;5012238;28;20038;-38
2023/06/18 07:17:22;;;;;;;23.23;20.70;;;22.60;99.90;;;;;;5012785;28;20148;-34
2023/06/18 07:19:48;;;;;;;22.52;19.10;;;22.80;99.90;;;;;;5012575;28;20074;-31
2023/06/18 07:22:14;;;;;;;24.02;19.30;;;22.90;99.90;;;;;;5012495;28;20049;-37
2023/06/18 07:24:39;;;;;;;23.80;19.80;;;23.00;99.90;;;;;;5012705;28;20038;-37
2023/06/18 07:27:08;;;;;;;21.50;18.42;;;23.00;99.90;;;;;;5011786;28;20576;-35
2023/06/18 07:29:34;;;;;;;25.27;20.25;;;23.10;99.90;;;;;;4991819;28;20121;-39
2023/06/18 07:31:59;;;;;;;20.80;18.67;;;23.20;99.90;;;;;;5009336;28;20034;-33
2023/06/18 07:34:25;;;;;;;21.38;18.08;;;23.10;99.90;;;;;;5011769;28;20140;-34
2023/06/18 07:36:51;;;;;;;21.90;19.55;;;23.20;99.90;;;;;;5012437;28;20044;-33
2023/06/18 07:39:16;;;;;;;22.55;19.27;;;23.20;99.90;;;;;;5012320;28;20037;-36
2023/06/18 07:41:47;;;;;;;22.95;20.00;;;23.30;99.90;;;;;;5012010;28;20042;-34
2023/06/18 07:44:15;;;;;;;21.40;19.17;;;23.30;99.90;;;;;;5012126;28;20049;-38
2023/06/18 07:46:42;;;;;;;22.67;18.95;;;23.40;99.90;;;;;;5011947;28;20141;-35
2023/06/18 07:49:09;;;;;;;21.98;18.98;;;23.30;99.90;;;;;;5012634;28;20368;-37
2023/06/18 07:51:35;;;;;;;22.27;20.08;;;23.40;99.90;;;;;;5012116;28;20053;-36
2023/06/18 07:54:01;;;;;;;20.60;18.50;;;23.50;99.90;;;;;;5011527;28;20041;-35
2023/06/18 07:56:26;;;;;;;19.45;17.40;;;23.60;99.90;;;;;;5010999;28;20042;-35
2023/06/18 07:58:52;;;;;;;20.80;17.75;;;23.70;99.90;;;;;;5011884;28;20092;-33
2023/06/18 08:01:18;;;;;;;21.42;19.05;;;23.80;99.90;;;;;;5011640;28;20038;-38
2023/06/18 08:03:44;;;;;;;19.10;16.92;;;23.80;99.90;;;;;;5011520;28;20415;-36
2023/06/18 08:06:10;;;;;;;19.77;17.55;;;23.80;99.90;;;;;;5011835;28;20065;-34
2023/06/18 08:08:35;;;;;;;18.77;16.75;;;23.80;99.90;;;;;;5011570;28;20038;-34
2023/06/18 08:11:01;;;;;;;22.00;17.50;;;24.00;99.90;;;;;;5011704;28;20069;-35
2023/06/18 08:13:27;;;;;;;19.35;17.33;;;24.20;99.90;;;;;;5011576;28;20491;-36
2023/06/18 08:15:52;;;;;;;18.65;16.65;;;24.50;99.90;;;;;;5011569;28;20398;-36
2023/06/18 08:18:18;;;;;;;18.45;16.50;;;24.80;99.90;;;;;;5011645;28;20046;-34
2023/06/18 08:20:44;;;;;;;18.27;16.33;;;25.00;99.90;;;;;;5011323;28;20077;-36
2023/06/18 08:23:09;;;;;;;17.52;15.93;;;24.90;99.90;;;;;;5011490;28;20076;-37
2023/06/18 08:25:36;;;;;;;19.98;17.00;;;25.00;99.90;;;;;;5010870;28;20081;-35
2023/06/18 08:28:02;;;;;;;18.23;16.42;;;25.10;99.90;;;;;;5011515;28;20499;-37
2023/06/18 08:30:27;;;;;;;17.45;15.70;;;25.40;99.90;;;;;;5010890;28;20038;-35
2023/06/18 08:32:56;;;;;;;18.08;15.05;;;25.70;99.90;;;;;;5011343;28;20033;-36
2023/06/18 08:35:22;;;;;;;15.77;13.88;;;25.70;99.90;;;;;;5010850;28;20030;-39
2023/06/18 08:37:48;;;;;;;15.90;14.20;;;26.00;99.90;;;;;;4993564;28;20551;-38
2023/06/18 08:40:14;;;;;;;15.40;13.82;;;26.30;99.90;;;;;;5011371;28;20034;-40
2023/06/18 08:42:44;;;;;;;13.55;12.15;;;26.60;99.90;;;;;;5011122;28;20044;-37
2023/06/18 08:45:10;;;;;;;13.40;11.35;;;26.80;99.90;;;;;;5011325;28;20038;-37
2023/06/18 08:47:39;;;;;;;12.52;11.15;;;26.90;99.90;;;;;;5011598;28;20038;-36
2023/06/18 08:50:07;;;;;;;13.68;12.38;;;27.10;99.90;;;;;;4993714;28;20038;-34
2023/06/18 08:52:33;;;;;;;12.20;11.10;;;27.30;99.90;;;;;;5011457;28;20507;-34
2023/06/18 08:55:02;;;;;;;12.55;11.05;;;27.50;99.90;;;;;;5011581;28;20065;-36
2023/06/18 08:57:37;;;;;;;12.07;10.93;;;27.70;99.90;;;;;;5011519;28;20042;-36
2023/06/18 09:00:04;;;;;;;10.88;9.82;;;27.90;99.20;;;;;;5011430;28;20048;-38
2023/06/18 09:02:30;;;;;;;11.13;10.00;;;28.10;97.30;;;;;;5011224;28;20061;-36
2023/06/18 09:04:56;;;;;;;9.70;8.75;;;28.30;92.30;;;;;;5011508;28;20042;-35
2023/06/18 09:07:24;;;;;;;9.40;8.40;;;28.40;84.90;;;;;;5010130;28;20048;-35
2023/06/18 09:09:50;;;;;;;10.43;9.43;;;28.40;71.60;;;;;;5010691;28;20037;-34
2023/06/18 09:12:16;;;;;;;9.52;8.73;;;28.50;76.70;;;;;;5011169;28;20478;-36
2023/06/18 09:14:42;;;;;;;9.63;8.57;;;28.50;68.60;;;;;;5011068;28;20045;-37
2023/06/18 09:17:07;;;;;;;8.50;7.80;;;28.50;67.30;;;;;;5011111;28;20042;-34
2023/06/18 09:19:33;;;;;;;9.25;8.25;;;28.50;63.60;;;;;;5010939;28;20106;-37
2023/06/18 09:22:13;;;;;;;8.90;8.00;;;28.70;63.10;;;;;;5010613;28;20038;-39
2023/06/18 09:24:39;;;;;;;10.85;8.40;;;28.90;62.60;;;;;;5010707;28;20042;-37
2023/06/18 09:27:06;;;;;;;9.23;8.30;;;28.90;61.60;;;;;;5010941;28;20038;-38
2023/06/18 09:29:40;;;;;;;9.70;8.32;;;28.90;60.40;;;;;;5010570;28;20046;-35
2023/06/18 09:32:11;;;;;;;8.38;7.68;;;29.10;58.50;;;;;;5010612;28;20057;-32
2023/06/18 09:34:37;;;;;;;8.50;7.80;;;29.30;59.40;;;;;;5010485;28;20045;-39
2023/06/18 09:37:05;;;;;;;8.82;7.63;;;29.50;61.50;;;;;;5009820;28;20377;-38
2023/06/18 09:39:32;;;;;;;8.38;7.68;;;29.80;60.40;;;;;;5010852;28;20487;-37
2023/06/18 09:42:05;;;;;;;8.35;7.65;;;30.00;59.00;;;;;;5010736;28;20041;-33
2023/06/18 09:44:31;;;;;;;9.38;8.48;;;30.10;57.40;;;;;;5010795;28;20120;-35
2023/06/18 09:46:57;;;;;;;8.85;8.15;;;30.40;58.00;;;;;;4993092;28;20582;-36
2023/06/18 09:49:25;;;;;;;10.30;8.07;;;30.30;54.40;;;;;;5010613;28;20029;-37
2023/06/18 09:51:52;;;;;;;9.35;8.13;;;30.30;53.90;;;;;;5010925;28;20407;-34
2023/06/18 09:54:17;;;;;;;8.73;7.85;;;30.50;54.20;;;;;;5010571;28;20042;-35
2023/06/18 09:57:02;;;;;;;8.43;7.63;;;30.80;53.40;;;;;;5010522;28;20052;-36
2023/06/18 09:59:29;;;;;;;8.18;7.47;;;31.00;51.40;;;;;;5010381;28;20717;-36
2023/06/18 10:01:55;;;;;;;8.55;7.88;;;31.00;50.90;;;;;;5003253;28;20030;-37
2023/06/18 10:04:21;;;;;;;8.15;7.35;;;30.90;50.50;;;;;;5003998;28;20080;-32
2023/06/18 10:06:59;;;;;;;8.00;7.35;;;30.90;51.20;;;;;;5010604;28;20095;-37
2023/06/18 10:09:40;;;;;;;8.80;7.32;;;31.00;51.90;;;;;;5010284;28;20064;-36
2023/06/18 10:12:06;;;;;;;8.35;7.53;;;31.20;52.90;;;;;;5010170;28;20121;-35
2023/06/18 10:14:33;;;;;;;8.85;8.05;;;31.50;53.10;;;;;;5010434;28;20038;-39
2023/06/18 10:17:01;;;;;;;8.38;7.68;;;31.70;52.40;;;;;;5010284;28;20088;-40
2023/06/18 10:19:38;;;;;;;9.65;8.60;;;31.90;49.50;;;;;;5009888;28;20046;-33
2023/06/18 10:22:04;;;;;;;9.20;8.40;;;31.80;49.00;;;;;;5009953;28;20037;-36
2023/06/18 10:24:56;;;;;;;8.30;7.60;;;31.90;49.00;;;;;;5010316;28;20095;-34
2023/06/18 10:27:22;;;;;;;8.95;8.15;;;32.00;49.10;;;;;;5010104;28;20040;-34
2023/06/18 10:29:48;;;;;;;8.70;7.72;;;32.00;49.40;;;;;;5010091;28;20487;-37
2023/06/18 10:32:15;;;;;;;8.57;7.65;;;31.90;48.60;;;;;;5010374;28;20073;-37
2023/06/18 10:34:42;;;;;;;8.70;7.88;;;31.80;48.10;;;;;;5009776;28;20099;-36
2023/06/18 10:37:09;;;;;;;9.27;8.27;;;31.70;48.60;;;;;;5009966;28;20468;-35
2023/06/18 10:39:35;;;;;;;7.93;7.13;;;31.60;47.80;;;;;;4993694;28;20049;-36
2023/06/18 10:42:12;;;;;;;8.60;7.80;;;31.50;47.10;;;;;;4991528;28;20042;-37
2023/06/18 10:44:57;;;;;;;8.23;7.60;;;31.60;48.00;;;;;;5009899;28;20041;-36
2023/06/18 10:47:27;;;;;;;8.57;7.88;;;31.60;47.70;;;;;;5010046;28;20041;-35
2023/06/18 10:50:02;;;;;;;7.55;6.93;;;31.40;46.80;;;;;;5013194;28;20038;-36
2023/06/18 10:52:30;;;;;;;8.80;8.00;;;31.30;46.20;;;;;;4995993;28;20046;-35
2023/06/18 10:55:20;;;;;;;8.55;7.63;;;31.10;46.60;;;;;;5013460;28;20295;-39
2023/06/18 10:57:51;;;;;;;8.73;8.02;;;31.00;48.30;;;;;;5013674;28;20061;-36
2023/06/18 11:00:25;;;;;;;8.75;7.95;;;30.90;48.80;;;;;;5013518;28;20038;-35
2023/06/18 11:02:59;;;;;;;8.60;7.72;;;30.90;49.20;;;;;;5013850;28;20157;-38
2023/06/18 11:05:36;;;;;;;7.97;7.38;;;30.90;49.20;;;;;;5013169;28;20049;-35
2023/06/18 11:08:06;;;;;;;8.60;7.80;;;30.80;48.80;;;;;;4993413;28;20042;-36
2023/06/18 11:10:34;;;;;;;9.27;8.45;;;30.50;49.30;;;;;;4993520;28;20049;-40
2023/06/18 11:13:03;;;;;;;9.75;8.27;;;30.30;49.30;;;;;;4993748;28;20043;-37
2023/06/18 11:15:29;;;;;;;8.45;7.65;;;30.20;48.90;;;;;;5012653;28;20041;-38
2023/06/18 11:18:00;;;;;;;7.70;7.10;;;30.20;48.70;;;;;;5013077;28;20030;-36
2023/06/18 11:20:29;;;;;;;8.05;7.35;;;30.10;47.50;;;;;;5012987;28;20113;-36
2023/06/18 11:22:56;;;;;;;7.68;6.97;;;30.10;47.10;;;;;;5012435;28;20377;-34
2023/06/18 11:25:23;;;;;;;7.45;6.85;;;30.20;47.10;;;;;;5012782;28;20042;-38
2023/06/18 11:27:49;;;;;;;8.77;8.07;;;30.10;46.70;;;;;;5012561;28;20034;-33
2023/06/18 11:30:18;;;;;;;8.43;7.60;;;30.10;46.30;;;;;;5012508;28;20034;-38
2023/06/18 11:32:44;;;;;;;8.32;7.72;;;29.90;45.90;;;;;;5012487;28;20061;-35
2023/06/18 11:35:12;;;;;;;8.40;7.60;;;29.70;46.30;;;;;;5012589;28;20048;-38
2023/06/18 11:37:43;;;;;;;8.43;7.63;;;29.70;46.90;;;;;;5012889;28;20077;-34
2023/06/18 11:40:09;;;;;;;8.95;8.23;;;29.60;47.20;;;;;;5012268;28;20042;-38
2023/06/18 11:42:37;;;;;;;8.40;7.70;;;29.70;48.30;;;;;;5009225;28;20507;-34
2023/06/18 11:45:05;;;;;;;8.02;7.43;;;29.80;48.60;;;;;;5010633;28;20049;-37
2023/06/18 11:47:33;;;;;;;8.10;7.32;;;30.10;49.40;;;;;;5012277;28;20048;-38
2023/06/18 11:49:59;;;;;;;8.93;8.07;;;30.20;48.60;;;;;;5012035;28;20113;-36
2023/06/18 11:52:27;;;;;;;8.30;7.63;;;30.70;49.30;;;;;;5012423;28;20530;-36
2023/06/18 11:54:53;;;;;;;14.32;8.30;;;31.00;48.60;;;;;;5012881;28;20046;-35
2023/06/18 11:57:22;;;;;;;8.13;7.43;;;31.30;47.40;;;;;;5010820;28;20077;-37
2023/06/18 11:59:51;;;;;;;8.20;7.40;;;31.40;46.50;;;;;;5011571;28;20038;-38
2023/06/18 12:02:25;;;;;;;8.13;7.40;;;31.50;47.00;;;;;;5012188;28;20050;-34
2023/06/18 12:04:51;;;;;;;8.25;7.45;;;31.60;47.40;;;;;;5011525;28;20042;-38
2023/06/18 12:07:17;;;;;;;8.07;7.38;;;31.50;47.10;;;;;;5012119;28;20088;-35
2023/06/18 12:09:45;;;;;;;7.47;6.78;;;31.50;46.50;;;;;;5012053;28;20190;-38
2023/06/18 12:12:20;;;;;;;8.43;7.72;;;31.70;46.90;;;;;;5012165;28;20132;-34
2023/06/18 12:15:04;;;;;;;8.82;8.10;;;31.50;45.70;;;;;;5012217;28;20045;-37
2023/06/18 12:17:42;;;;;;;8.60;7.80;;;31.60;44.20;;;;;;4994732;28;20770;-41
2023/06/18 12:20:25;;;;;;;12.10;11.00;;;31.60;45.20;;;;;;4990203;28;20038;-34
2023/06/18 12:22:51;;;;;;;9.45;8.57;;;32.00;45.70;;;;;;5007335;28;20472;-35
2023/06/18 12:25:39;;;;;;;19.85;18.33;;;32.40;46.90;;;;;;5012536;28;20038;-41
2023/06/18 12:28:13;;;;;;;16.42;14.82;;;32.80;46.90;;;;;;4994101;28;20046;-40
2023/06/18 12:30:41;;;;;;;10.02;9.23;;;33.20;45.70;;;;;;5009349;28;20365;-37
2023/06/18 12:33:12;;;;;;;8.25;7.50;;;33.50;45.10;;;;;;4993148;28;20088;-34
2023/06/18 12:35:41;;;;;;;11.38;10.48;;;33.80;45.80;;;;;;4974036;28;20042;-38